createdAt,value
2022-09-16T00:00:52.339Z,98474.75
2022-09-16T00:03:38.691Z,98472.94
2022-09-16T00:06:06.805Z,98481.88
2022-09-16T00:08:34.205Z,98473.69
2022-09-16T00:11:02.995Z,98479.03
2022-09-16T00:13:30.306Z,98473.41
2022-09-16T00:15:57.752Z,98468.94
2022-09-16T00:18:25.243Z,98472.28
2022-09-16T00:20:54.916Z,98471.44
2022-09-16T00:23:22.312Z,98481.25
2022-09-16T00:25:53.951Z,98478.94
2022-09-16T00:28:22.927Z,98465.03
2022-09-16T00:30:50.345Z,98479.41
2022-09-16T00:33:18.540Z,98467.53
2022-09-16T00:35:46.809Z,98472.53
2022-09-16T00:38:14.401Z,98485.25
2022-09-16T00:40:47.063Z,98485.03
2022-09-16T00:43:19.420Z,98476.16
2022-09-16T00:45:57.110Z,98474.88
2022-09-16T00:48:27.539Z,98477.09
2022-09-16T00:51:00.646Z,98471.44
2022-09-16T00:53:42.847Z,98475.25
2022-09-16T00:56:13.183Z,98462.09
2022-09-16T00:58:47.429Z,98476.06
2022-09-16T01:01:15.281Z,98470.81
2022-09-16T01:03:48.970Z,98466.25
2022-09-16T01:06:19.556Z,98456.44
2022-09-16T01:08:50.383Z,98465.97
2022-09-16T01:11:18.186Z,98466.34
2022-09-16T01:13:47.343Z,98458.28
2022-09-16T01:16:28.966Z,98469.31
2022-09-16T01:19:31.297Z,98472.38
2022-09-16T01:22:19.185Z,98469.31
2022-09-16T01:24:59.041Z,98473.84
2022-09-16T01:27:53.545Z,98468.75
2022-09-16T01:30:34.455Z,98475.31
2022-09-16T01:33:06.731Z,98465.53
2022-09-16T01:35:52.836Z,98466.34
2022-09-16T01:38:29.056Z,98474.69
2022-09-16T01:41:14.579Z,98473.00
2022-09-16T01:44:10.938Z,98469.88
2022-09-16T01:46:46.459Z,98472.91
2022-09-16T01:49:22.740Z,98466.47
2022-09-16T01:52:02.392Z,98472.47
2022-09-16T01:54:42.845Z,98474.69
2022-09-16T01:57:22.756Z,98475.34
2022-09-16T02:00:06.738Z,98471.06
2022-09-16T02:03:01.611Z,98482.53
2022-09-16T02:05:37.656Z,98481.06
2022-09-16T02:08:46.067Z,98478.16
2022-09-16T02:11:16.801Z,98468.63
2022-09-16T02:13:50.394Z,98469.09
2022-09-16T02:16:29.542Z,98470.09
2022-09-16T02:19:02.697Z,98466.97
2022-09-16T02:21:34.326Z,98474.59
2022-09-16T02:24:03.827Z,98470.97
2022-09-16T02:26:39.598Z,98464.50
2022-09-16T02:29:23.439Z,98464.84
2022-09-16T02:31:57.061Z,98475.59
2022-09-16T02:34:31.351Z,98470.88
2022-09-16T02:37:04.739Z,98461.25
2022-09-16T02:39:37.785Z,98454.56
2022-09-16T02:42:05.714Z,98459.59
2022-09-16T02:44:34.446Z,98460.88
2022-09-16T02:47:28.090Z,98458.03
2022-09-16T02:49:57.978Z,98454.41
2022-09-16T02:52:54.348Z,98452.88
2022-09-16T02:55:33.244Z,98459.19
2022-09-16T02:58:00.839Z,98465.13
2022-09-16T03:00:32.284Z,98451.53
2022-09-16T03:02:59.566Z,98459.13
2022-09-16T03:05:30.182Z,98450.31
2022-09-16T03:07:58.558Z,98463.56
2022-09-16T03:10:29.692Z,98465.84
2022-09-16T03:13:09.679Z,98471.16
2022-09-16T03:15:43.542Z,98473.19
2022-09-16T03:18:23.119Z,98468.09
2022-09-16T03:21:57.904Z,98473.72
2022-09-16T03:24:45.706Z,98471.16
2022-09-16T03:27:42.880Z,98478.91
2022-09-16T03:30:11.472Z,98477.38
2022-09-16T03:32:59.705Z,98482.09
2022-09-16T03:35:32.225Z,98480.34
2022-09-16T03:38:02.464Z,98471.56
2022-09-16T03:40:32.681Z,98471.38
2022-09-16T03:43:00.111Z,98464.16
2022-09-16T03:45:27.319Z,98476.56
2022-09-16T03:47:54.538Z,98472.38
2022-09-16T03:50:22.098Z,98474.25
2022-09-16T03:52:49.674Z,98467.75
2022-09-16T03:55:17.181Z,98467.22
2022-09-16T03:57:44.746Z,98473.31
2022-09-16T04:00:12.523Z,98473.94
2022-09-16T04:02:39.732Z,98478.13
2022-09-16T04:05:08.355Z,98484.03
2022-09-16T04:07:36.181Z,98481.94
2022-09-16T04:10:04.918Z,98485.28
2022-09-16T04:12:32.475Z,98477.91
2022-09-16T04:15:00.968Z,98485.94
2022-09-16T04:17:32.071Z,98484.25
2022-09-16T04:19:59.540Z,98488.41
2022-09-16T04:22:31.073Z,98477.41
2022-09-16T04:24:58.497Z,98498.28
2022-09-16T04:27:26.005Z,98500.44
2022-09-16T04:29:53.289Z,98495.53
2022-09-16T04:32:20.445Z,98494.78
2022-09-16T04:34:47.880Z,98487.09
2022-09-16T04:37:15.022Z,98489.94
2022-09-16T04:39:42.139Z,98497.00
2022-09-16T04:42:12.367Z,98498.75
2022-09-16T04:44:39.961Z,98493.56
2022-09-16T04:47:07.128Z,98493.38
2022-09-16T04:49:34.517Z,98486.63
2022-09-16T04:52:01.930Z,98495.97
2022-09-16T04:54:29.137Z,98497.47
2022-09-16T04:56:57.774Z,98497.91
2022-09-16T04:59:24.902Z,98499.13
2022-09-16T05:01:52.360Z,98481.56
2022-09-16T05:04:19.835Z,98487.75
2022-09-16T05:06:47.002Z,98485.16
2022-09-16T05:09:14.199Z,98492.19
2022-09-16T05:11:42.308Z,98490.22
2022-09-16T05:14:18.800Z,98495.53
2022-09-16T05:16:47.101Z,98485.88
2022-09-16T05:19:15.181Z,98492.75
2022-09-16T05:21:42.877Z,98473.69
2022-09-16T05:24:12.724Z,98484.97
2022-09-16T05:26:42.188Z,98474.97
2022-09-16T05:29:15.865Z,98479.41
2022-09-16T05:31:46.131Z,98474.75
2022-09-16T05:34:19.062Z,98466.91
2022-09-16T05:36:47.950Z,98480.41
2022-09-16T05:39:25.983Z,98486.53
2022-09-16T05:41:59.424Z,98479.41
2022-09-16T05:44:28.195Z,98472.00
2022-09-16T05:46:55.902Z,98466.59
2022-09-16T05:49:23.885Z,98483.78
2022-09-16T05:51:52.091Z,98490.56
2022-09-16T05:54:20.456Z,98470.84
2022-09-16T05:56:48.312Z,98492.25
2022-09-16T05:59:17.003Z,98497.63
2022-09-16T06:01:45.317Z,98482.16
2022-09-16T06:04:14.614Z,98485.94
2022-09-16T06:06:43.739Z,98481.75
2022-09-16T06:09:18.245Z,98493.34
2022-09-16T06:11:49.258Z,98484.94
2022-09-16T06:14:18.304Z,98485.72
2022-09-16T06:16:46.252Z,98478.66
2022-09-16T06:19:17.238Z,98473.00
2022-09-16T06:21:46.792Z,98476.38
2022-09-16T06:24:16.060Z,98470.78
2022-09-16T06:26:45.124Z,98474.94
2022-09-16T06:29:13.720Z,98470.44
2022-09-16T06:31:41.434Z,98465.19
2022-09-16T06:34:14.588Z,98465.72
2022-09-16T06:36:45.012Z,98467.81
2022-09-16T06:39:14.997Z,98450.81
2022-09-16T06:41:43.255Z,98457.44
2022-09-16T06:44:10.600Z,98442.44
2022-09-16T06:46:37.934Z,98440.16
2022-09-16T06:49:06.420Z,98442.63
2022-09-16T06:51:35.007Z,98439.53
2022-09-16T06:54:05.093Z,98448.03
2022-09-16T06:56:34.191Z,98439.41
2022-09-16T06:59:01.368Z,98452.75
2022-09-16T07:01:30.689Z,98456.97
2022-09-16T07:04:01.583Z,98455.66
2022-09-16T07:06:51.051Z,98453.25
2022-09-16T07:09:17.935Z,98452.16
2022-09-16T07:11:45.416Z,98427.31
2022-09-16T07:14:12.566Z,98450.34
2022-09-16T07:16:39.992Z,98458.50
2022-09-16T07:19:07.204Z,98449.78
2022-09-16T07:21:34.401Z,98458.59
2022-09-16T07:24:02.928Z,98443.13
2022-09-16T07:26:35.449Z,98454.72
2022-09-16T07:29:05.730Z,98461.09
2022-09-16T07:31:35.324Z,98446.34
2022-09-16T07:34:05.062Z,98444.75
2022-09-16T07:36:41.170Z,98446.50
2022-09-16T07:39:09.383Z,98438.00
2022-09-16T07:41:45.888Z,98458.53
2022-09-16T07:44:15.607Z,98453.81
2022-09-16T07:46:43.593Z,98458.44
2022-09-16T07:49:14.007Z,98435.84
2022-09-16T07:51:41.569Z,98449.50
2022-09-16T07:54:12.696Z,98448.94
2022-09-16T07:56:41.554Z,98456.00
2022-09-16T07:59:15.932Z,98457.19
2022-09-16T08:01:48.576Z,98446.75
2022-09-16T08:04:17.115Z,98454.88
2022-09-16T08:06:44.545Z,98467.56
2022-09-16T08:12:01.662Z,98461.75
2022-09-16T08:14:29.094Z,98480.22
2022-09-16T08:16:56.508Z,98479.16
2022-09-16T08:19:23.726Z,98479.16
2022-09-16T08:21:51.551Z,98488.94
2022-09-16T08:24:18.801Z,98488.09
2022-09-16T08:26:45.984Z,98501.00
2022-09-16T08:29:13.755Z,98484.38
2022-09-16T08:31:41.208Z,98478.56
2022-09-16T08:34:08.450Z,98484.81
2022-09-16T08:36:35.856Z,98493.31
2022-09-16T08:39:03.355Z,98477.09
2022-09-16T08:42:07.972Z,98471.03
2022-09-16T08:45:09.339Z,98464.56
2022-09-16T08:48:01.356Z,98473.28
2022-09-16T08:50:33.571Z,98459.19
2022-09-16T08:53:05.143Z,98461.47
2022-09-16T08:55:41.009Z,98451.38
2022-09-16T08:58:19.820Z,98471.56
2022-09-16T09:01:03.023Z,98466.47
2022-09-16T09:03:46.147Z,98467.28
2022-09-16T09:06:24.219Z,98475.00
2022-09-16T09:09:13.897Z,98490.19
2022-09-16T09:12:15.715Z,98480.72
2022-09-16T09:15:02.036Z,98488.44
2022-09-16T09:17:49.921Z,98488.84
2022-09-16T09:20:38.853Z,98488.78
2022-09-16T09:23:32.458Z,98491.28
2022-09-16T09:26:13.855Z,98494.53
2022-09-16T09:29:15.087Z,98496.97
2022-09-16T09:32:01.273Z,98490.38
2022-09-16T09:34:45.805Z,98494.34
2022-09-16T09:37:31.977Z,98495.44
2022-09-16T09:40:21.918Z,98495.41
2022-09-16T09:42:59.608Z,98499.38
2022-09-16T09:45:33.536Z,98511.41
2022-09-16T09:48:13.359Z,98493.56
2022-09-16T09:50:44.379Z,98475.13
2022-09-16T09:53:11.538Z,98495.03
2022-09-16T09:55:41.008Z,98488.13
2022-09-16T09:58:12.396Z,98493.13
2022-09-16T10:00:39.673Z,98498.13
2022-09-16T10:03:11.724Z,98487.13
2022-09-16T10:05:39.363Z,98498.31
2022-09-16T10:08:14.446Z,98503.28
2022-09-16T10:10:50.680Z,98497.34
2022-09-16T10:13:19.595Z,98497.53
2022-09-16T10:15:51.937Z,98494.13
2022-09-16T10:18:30.049Z,98503.47
2022-09-16T10:21:04.415Z,98490.00
2022-09-16T10:23:32.612Z,98496.69
2022-09-16T10:26:20.368Z,98500.66
2022-09-16T10:29:15.583Z,98501.09
2022-09-16T10:31:43.690Z,98495.53
2022-09-16T10:34:32.038Z,98508.72
2022-09-16T10:37:14.662Z,98496.13
2022-09-16T10:39:46.509Z,98501.38
2022-09-16T10:42:46.773Z,98507.19
2022-09-16T10:45:36.076Z,98494.81
2022-09-16T10:48:15.487Z,98497.31
2022-09-16T10:51:05.471Z,98502.56
2022-09-16T10:53:43.955Z,98517.16
2022-09-16T10:56:24.275Z,98499.53
2022-09-16T10:59:12.936Z,98503.97
2022-09-16T11:02:28.129Z,98503.16
2022-09-16T11:05:12.706Z,98517.56
2022-09-16T11:07:58.098Z,98514.25
2022-09-16T11:10:33.171Z,98523.19
2022-09-16T11:13:18.889Z,98514.75
2022-09-16T11:16:00.406Z,98510.91
2022-09-16T11:18:50.756Z,98510.78
2022-09-16T11:21:26.336Z,98516.00
2022-09-16T11:24:30.546Z,98513.81
2022-09-16T11:27:28.537Z,98525.00
2022-09-16T11:30:17.397Z,98517.41
2022-09-16T11:36:23.906Z,98528.84
2022-09-16T11:39:05.731Z,98536.06
2022-09-16T11:41:42.436Z,98546.56
2022-09-16T11:44:38.964Z,98531.81
2022-09-16T11:47:27.456Z,98529.72
2022-09-16T11:50:08.317Z,98535.00
2022-09-16T11:52:44.768Z,98541.75
2022-09-16T11:55:46.832Z,98545.97
2022-09-16T11:58:38.350Z,98537.03
2022-09-16T12:01:31.953Z,98531.47
2022-09-16T12:04:06.825Z,98525.09
2022-09-16T12:06:58.957Z,98538.16
2022-09-16T12:09:31.637Z,98539.16
2022-09-16T12:12:12.597Z,98523.69
2022-09-16T12:14:49.925Z,98531.94
2022-09-16T12:17:22.448Z,98528.47
2022-09-16T12:20:00.186Z,98533.41
2022-09-16T12:22:43.729Z,98526.41
2022-09-16T12:25:29.254Z,98527.88
2022-09-16T12:28:03.365Z,98516.94
2022-09-16T12:30:37.532Z,98523.28
2022-09-16T12:33:28.828Z,98529.50
2022-09-16T12:36:04.129Z,98517.53
2022-09-16T12:38:31.684Z,98538.78
2022-09-16T12:41:29.371Z,98517.78
2022-09-16T12:44:33.999Z,98524.97
2022-09-16T12:47:23.498Z,98526.66
2022-09-16T12:50:06.306Z,98518.44
2022-09-16T12:53:10.176Z,98529.81
2022-09-16T12:55:46.865Z,98523.59
2022-09-16T12:58:33.128Z,98533.41
2022-09-16T13:01:09.842Z,98536.16
2022-09-16T13:03:45.263Z,98510.63
2022-09-16T13:06:34.494Z,98509.09
2022-09-16T13:09:25.580Z,98517.84
2022-09-16T13:14:54.566Z,98514.63
2022-09-16T13:17:33.957Z,98520.72
2022-09-16T13:20:20.214Z,98520.88
2022-09-16T13:22:51.817Z,98508.97
2022-09-16T13:25:58.290Z,98525.75
2022-09-16T13:28:36.423Z,98504.50
2022-09-16T13:31:12.823Z,98514.00
2022-09-16T13:33:45.350Z,98510.31
2022-09-16T13:36:21.512Z,98512.41
2022-09-16T13:38:52.065Z,98515.38
2022-09-16T13:41:34.712Z,98531.44
2022-09-16T13:44:21.823Z,98523.28
2022-09-16T13:46:49.343Z,98520.88
2022-09-16T13:49:26.019Z,98507.09
2022-09-16T13:51:53.885Z,98501.31
2022-09-16T13:54:25.372Z,98518.50
2022-09-16T13:57:25.912Z,98511.06
2022-09-16T14:00:13.430Z,98504.75
2022-09-16T14:03:15.881Z,98514.94
2022-09-16T14:06:20.655Z,98516.84
2022-09-16T14:08:53.605Z,98519.56
2022-09-16T14:11:31.840Z,98525.53
2022-09-16T14:14:29.918Z,98509.69
2022-09-16T14:17:05.585Z,98513.56
2022-09-16T14:19:37.898Z,98519.47
2022-09-16T14:22:14.616Z,98518.63
2022-09-16T14:24:43.259Z,98518.25
2022-09-16T14:27:23.306Z,98517.63
2022-09-16T14:29:58.972Z,98511.81
2022-09-16T14:32:30.406Z,98512.69
2022-09-16T14:35:01.929Z,98528.06
2022-09-16T14:37:30.644Z,98520.81
2022-09-16T14:40:11.647Z,98534.31
2022-09-16T14:42:48.387Z,98521.06
2022-09-16T14:45:17.521Z,98525.88
2022-09-16T14:47:53.387Z,98529.19
2022-09-16T14:50:28.611Z,98534.81
2022-09-16T14:53:05.738Z,98521.19
2022-09-16T14:55:37.681Z,98518.28
2022-09-16T14:58:05.248Z,98523.69
2022-09-16T15:00:50.732Z,98530.38
2022-09-16T15:03:42.400Z,98528.69
2022-09-16T15:06:16.363Z,98531.66
2022-09-16T15:08:47.330Z,98532.28
2022-09-16T15:11:43.579Z,98541.63
2022-09-16T15:14:09.443Z,98530.00
2022-09-16T15:16:44.232Z,98538.97
2022-09-16T15:19:25.445Z,98527.78
2022-09-16T15:21:53.400Z,98520.94
2022-09-16T15:24:25.029Z,98516.78
2022-09-16T15:26:53.898Z,98527.38
2022-09-16T15:29:24.242Z,98528.22
2022-09-16T15:31:52.611Z,98519.94
2022-09-16T15:34:22.692Z,98523.66
2022-09-16T15:36:59.448Z,98520.94
2022-09-16T15:39:33.085Z,98531.50
2022-09-16T15:42:24.150Z,98523.66
2022-09-16T15:45:03.334Z,98541.44
2022-09-16T15:47:34.759Z,98521.31
2022-09-16T15:50:10.007Z,98523.19
2022-09-16T15:53:00.150Z,98529.22
2022-09-16T15:55:44.144Z,98520.66
2022-09-16T15:58:33.026Z,98524.81
2022-09-16T16:01:18.251Z,98528.16
2022-09-16T16:03:45.631Z,98524.38
2022-09-16T16:06:13.391Z,98521.03
2022-09-16T16:08:53.082Z,98529.53
2022-09-16T16:11:23.532Z,98526.00
2022-09-16T16:13:51.270Z,98522.69
2022-09-16T16:16:19.440Z,98508.31
2022-09-16T16:18:47.041Z,98516.38
2022-09-16T16:21:16.461Z,98512.25
2022-09-16T16:23:43.768Z,98502.91
2022-09-16T16:26:11.903Z,98499.94
2022-09-16T16:28:39.120Z,98504.16
2022-09-16T16:31:14.290Z,98509.88
2022-09-16T16:33:44.680Z,98513.00
2022-09-16T16:36:14.430Z,98512.16
2022-09-16T16:38:41.931Z,98500.78
2022-09-16T16:41:10.766Z,98500.97
2022-09-16T16:43:38.729Z,98505.50
2022-09-16T16:46:06.038Z,98508.78
2022-09-16T16:48:34.313Z,98506.59
2022-09-16T16:51:10.329Z,98504.16
2022-09-16T16:53:38.733Z,98509.41
2022-09-16T16:56:14.466Z,98502.09
2022-09-16T16:58:45.263Z,98507.91
2022-09-16T17:01:16.296Z,98507.91
2022-09-16T17:03:46.437Z,98520.75
2022-09-16T17:06:13.969Z,98512.50
2022-09-16T17:08:41.465Z,98527.41
2022-09-16T17:11:14.659Z,98511.81
2022-09-16T17:13:45.917Z,98513.44
2022-09-16T17:16:16.884Z,98505.22
2022-09-16T17:18:44.924Z,98504.16
2022-09-16T17:21:24.175Z,98508.34
2022-09-16T17:23:52.597Z,98509.41
2022-09-16T17:26:21.247Z,98503.78
2022-09-16T17:28:50.936Z,98510.41
2022-09-16T17:31:26.692Z,98499.97
2022-09-16T17:34:05.625Z,98514.06
2022-09-16T17:36:35.375Z,98508.25
2022-09-16T17:39:05.659Z,98504.09
2022-09-16T17:41:33.261Z,98509.50
2022-09-16T17:44:05.668Z,98500.34
2022-09-16T17:46:33.660Z,98511.13
2022-09-16T17:49:04.193Z,98506.13
2022-09-16T17:51:32.444Z,98519.22
2022-09-16T17:54:00.194Z,98492.03
2022-09-16T17:56:27.632Z,98504.97
2022-09-16T17:58:55.202Z,98509.88
2022-09-16T18:01:24.777Z,98505.50
2022-09-16T18:03:54.628Z,98499.91
2022-09-16T18:06:24.905Z,98492.75
2022-09-16T18:08:52.554Z,98490.69
2022-09-16T18:11:21.378Z,98489.44
2022-09-16T18:13:49.125Z,98496.97
2022-09-16T18:16:19.595Z,98489.44
2022-09-16T18:18:51.340Z,98494.00
2022-09-16T18:21:19.917Z,98491.13
2022-09-16T18:23:50.909Z,98499.06
2022-09-16T18:26:19.053Z,98489.94
2022-09-16T18:29:08.732Z,98495.94
2022-09-16T18:31:35.724Z,98498.84
2022-09-16T18:34:02.968Z,98501.09
2022-09-16T18:36:31.043Z,98495.75
2022-09-16T18:38:59.177Z,98481.72
2022-09-16T18:41:37.615Z,98495.00
2022-09-16T18:44:14.654Z,98480.50
2022-09-16T18:46:42.338Z,98489.31
2022-09-16T18:49:12.984Z,98495.31
2022-09-16T18:51:51.165Z,98479.59
2022-09-16T18:54:28.186Z,98481.91
2022-09-16T18:56:57.543Z,98476.19
2022-09-16T18:59:28.565Z,98471.13
2022-09-16T19:01:58.696Z,98472.06
2022-09-16T19:04:29.008Z,98479.78
2022-09-16T19:07:06.059Z,98462.09
2022-09-16T19:09:41.282Z,98457.28
2022-09-16T19:12:13.259Z,98467.88
2022-09-16T19:14:41.103Z,98471.97
2022-09-16T19:17:09.296Z,98474.34
2022-09-16T19:19:36.831Z,98471.47
2022-09-16T19:22:06.239Z,98477.84
2022-09-16T19:24:34.708Z,98471.84
2022-09-16T19:27:02.120Z,98475.16
2022-09-16T19:29:29.786Z,98483.88
2022-09-16T19:31:58.400Z,98483.88
2022-09-16T19:34:25.696Z,98475.06
2022-09-16T19:36:56.101Z,98490.41
2022-09-16T19:39:24.083Z,98487.28
2022-09-16T19:41:51.262Z,98489.13
2022-09-16T19:44:19.059Z,98492.84
2022-09-16T19:46:49.303Z,98492.34
2022-09-16T19:49:20.088Z,98497.84
2022-09-16T19:51:49.270Z,98501.09
2022-09-16T19:54:17.250Z,98504.03
2022-09-16T19:56:50.186Z,98511.66
2022-09-16T19:59:18.936Z,98493.88
2022-09-16T20:01:47.683Z,98492.56
2022-09-16T20:04:19.721Z,98501.50
2022-09-16T20:06:47.495Z,98497.81
2022-09-16T20:09:14.695Z,98504.16
2022-09-16T20:11:44.751Z,98508.06
2022-09-16T20:14:18.943Z,98500.53
2022-09-16T20:16:47.488Z,98502.19
2022-09-16T20:19:16.876Z,98505.53
2022-09-16T20:21:44.464Z,98503.47
2022-09-16T20:24:18.340Z,98494.31
2022-09-16T20:26:48.261Z,98507.56
2022-09-16T20:29:17.400Z,98512.41
2022-09-16T20:31:45.464Z,98506.09
2022-09-16T20:34:14.889Z,98491.56
2022-09-16T20:36:44.376Z,98514.75
2022-09-16T20:39:12.651Z,98522.34
2022-09-16T20:41:41.118Z,98504.00
2022-09-16T20:44:13.444Z,98501.25
2022-09-16T20:46:40.622Z,98503.84
2022-09-16T20:49:12.607Z,98504.59
2022-09-16T20:51:39.986Z,98499.50
2022-09-16T20:54:10.355Z,98502.31
2022-09-16T20:56:40.647Z,98495.34
2022-09-16T20:59:10.062Z,98503.41
2022-09-16T21:01:39.166Z,98498.84
2022-09-16T21:04:11.294Z,98488.75
2022-09-16T21:06:38.597Z,98489.31
2022-09-16T21:09:09.581Z,98492.75
2022-09-16T21:11:38.718Z,98494.84
2022-09-16T21:14:06.986Z,98489.47
2022-09-16T21:16:36.171Z,98484.47
2022-09-16T21:19:05.883Z,98483.56
2022-09-16T21:21:33.335Z,98467.91
2022-09-16T21:24:03.246Z,98464.38
2022-09-16T21:26:32.621Z,98468.59
2022-09-16T21:29:02.627Z,98472.28
2022-09-16T21:31:34.761Z,98468.94
2022-09-16T21:34:03.239Z,98460.53
2022-09-16T21:36:31.319Z,98454.66
2022-09-16T21:38:59.262Z,98465.59
2022-09-16T21:41:27.641Z,98461.97
2022-09-16T21:43:56.636Z,98458.84
2022-09-16T21:46:29.593Z,98464.75
2022-09-16T21:49:02.174Z,98464.50
2022-09-16T21:51:35.275Z,98462.00
2022-09-16T21:54:05.850Z,98462.38
2022-09-16T21:56:33.324Z,98456.97
2022-09-16T21:59:00.898Z,98457.84
2022-09-16T22:01:30.455Z,98469.69
2022-09-16T22:04:00.359Z,98446.97
2022-09-16T22:06:28.164Z,98443.84
2022-09-16T22:08:57.616Z,98457.63
2022-09-16T22:11:27.271Z,98465.13
2022-09-16T22:13:56.216Z,98458.56
2022-09-16T22:16:29.008Z,98460.41
2022-09-16T22:19:02.119Z,98465.59
2022-09-16T22:21:31.907Z,98463.56
2022-09-16T22:24:00.435Z,98471.34
2022-09-16T22:26:28.925Z,98461.25
2022-09-16T22:28:56.975Z,98472.75
2022-09-16T22:31:29.756Z,98475.31
2022-09-16T22:34:00.355Z,98477.47
2022-09-16T22:36:29.931Z,98468.13
2022-09-16T22:39:04.791Z,98473.50
2022-09-16T22:41:33.533Z,98475.41
2022-09-16T22:44:00.925Z,98484.03
2022-09-16T22:46:34.561Z,98482.53
2022-09-16T22:49:02.089Z,98479.41
2022-09-16T22:51:31.100Z,98464.38
2022-09-16T22:53:58.444Z,98460.97
2022-09-16T22:56:31.938Z,98476.31
2022-09-16T22:59:05.605Z,98469.47
2022-09-16T23:01:39.604Z,98461.16
2022-09-16T23:04:09.105Z,98461.59
2022-09-16T23:06:38.521Z,98457.00
2022-09-16T23:09:08.077Z,98433.72
2022-09-16T23:11:35.980Z,98450.31
2022-09-16T23:14:05.321Z,98443.44
2022-09-16T23:16:35.801Z,98452.66
2022-09-16T23:19:07.759Z,98456.81
2022-09-16T23:21:36.483Z,98457.53
2022-09-16T23:24:04.859Z,98462.84
2022-09-16T23:26:37.442Z,98456.88
2022-09-16T23:29:07.329Z,98447.91
2022-09-16T23:31:40.421Z,98447.81
2022-09-16T23:34:12.853Z,98445.81
2022-09-16T23:36:42.434Z,98453.75
2022-09-16T23:39:13.379Z,98454.50
2022-09-16T23:41:42.436Z,98440.81
2022-09-16T23:44:13.495Z,98436.16
2022-09-16T23:46:41.037Z,98434.97
2022-09-16T23:49:09.889Z,98432.66
2022-09-16T23:51:37.756Z,98443.75
2022-09-16T23:54:05.397Z,98439.03
2022-09-16T23:56:32.853Z,98447.91
2022-09-16T23:59:00.924Z,98455.72
